createdAt,value
2023-02-11T00:01:30.997Z,25.60
2023-02-11T00:04:01.704Z,24.33
2023-02-11T00:06:32.841Z,28.75
2023-02-11T00:09:01.020Z,26.15
2023-02-11T00:11:30.752Z,25.77
2023-02-11T00:14:00.444Z,27.05
2023-02-11T00:16:29.502Z,29.08
2023-02-11T00:18:57.734Z,27.80
2023-02-11T00:21:28.555Z,29.63
2023-02-11T00:23:59.698Z,26.50
2023-02-11T00:26:32.170Z,27.48
2023-02-11T00:29:01.922Z,27.38
2023-02-11T00:31:30.698Z,27.90
2023-02-11T00:33:58.890Z,27.33
2023-02-11T00:36:30.739Z,26.63
2023-02-11T00:39:00.890Z,26.23
2023-02-11T00:41:29.102Z,26.67
2023-02-11T00:43:57.471Z,26.38
2023-02-11T00:46:25.956Z,25.48
2023-02-11T00:48:57.589Z,26.77
2023-02-11T00:51:26.192Z,26.52
2023-02-11T00:53:56.384Z,27.10
2023-02-11T00:56:24.703Z,26.40
2023-02-11T00:58:53.405Z,27.75
2023-02-11T01:01:21.833Z,27.05
2023-02-11T01:03:50.010Z,26.65
2023-02-11T01:06:18.699Z,26.77
2023-02-11T01:08:46.967Z,28.17
2023-02-11T01:11:19.939Z,24.77
2023-02-11T01:13:50.837Z,27.50
2023-02-11T01:16:20.616Z,24.20
2023-02-11T01:18:49.169Z,25.80
2023-02-11T01:21:17.345Z,27.10
2023-02-11T01:23:45.635Z,24.00
2023-02-11T01:26:13.987Z,27.15
2023-02-11T01:28:43.555Z,26.65
2023-02-11T01:31:12.107Z,25.25
2023-02-11T01:33:40.257Z,25.08
2023-02-11T01:36:10.310Z,24.23
2023-02-11T01:38:40.885Z,29.17
2023-02-11T01:41:12.933Z,24.52
2023-02-11T01:43:46.540Z,24.48
2023-02-11T01:46:34.367Z,24.02
2023-02-11T01:49:08.570Z,25.15
2023-02-11T01:51:42.851Z,25.48
2023-02-11T01:54:32.236Z,26.02
2023-02-11T01:57:21.098Z,21.85
2023-02-11T02:00:08.291Z,24.65
2023-02-11T02:02:45.985Z,23.38
2023-02-11T02:05:25.671Z,24.08
2023-02-11T02:08:12.471Z,23.95
2023-02-11T02:10:48.495Z,23.17
2023-02-11T02:13:17.373Z,22.33
2023-02-11T02:15:53.195Z,23.13
2023-02-11T02:18:41.815Z,23.80
2023-02-11T02:21:43.170Z,24.63
2023-02-11T02:25:07.055Z,24.50
2023-02-11T02:27:52.135Z,23.13
2023-02-11T02:31:15.004Z,23.98
2023-02-11T02:33:54.746Z,24.13
2023-02-11T02:36:33.151Z,23.25
2023-02-11T02:39:10.560Z,23.58
2023-02-11T02:41:40.739Z,24.55
2023-02-11T02:44:10.000Z,24.45
2023-02-11T02:46:38.331Z,25.17
2023-02-11T02:49:15.547Z,24.42
2023-02-11T02:52:15.256Z,23.98
2023-02-11T02:55:21.442Z,24.13
2023-02-11T02:58:39.023Z,26.25
2023-02-11T03:01:22.814Z,24.83
2023-02-11T03:04:03.973Z,26.40
2023-02-11T03:06:45.765Z,25.75
2023-02-11T03:09:25.200Z,26.35
2023-02-11T03:11:53.779Z,24.00
2023-02-11T03:14:24.540Z,25.23
2023-02-11T03:16:55.870Z,24.05
2023-02-11T03:19:30.761Z,23.98
2023-02-11T03:22:03.940Z,28.48
2023-02-11T03:24:36.890Z,24.23
2023-02-11T03:27:13.878Z,23.45
2023-02-11T03:29:51.703Z,23.58
2023-02-11T03:32:28.052Z,24.08
2023-02-11T03:35:01.986Z,24.42
2023-02-11T03:37:40.888Z,20.95
2023-02-11T03:40:15.951Z,20.77
2023-02-11T03:42:50.473Z,23.60
2023-02-11T03:45:23.179Z,21.15
2023-02-11T03:47:59.194Z,22.05
2023-02-11T03:50:31.061Z,18.77
2023-02-11T03:53:04.096Z,19.38
2023-02-11T03:55:40.284Z,22.73
2023-02-11T03:58:09.556Z,18.93
2023-02-11T04:00:41.312Z,21.95
2023-02-11T04:03:11.388Z,23.02
2023-02-11T04:05:40.211Z,20.55
2023-02-11T04:08:10.392Z,19.30
2023-02-11T04:10:38.736Z,20.27
2023-02-11T04:13:06.905Z,21.20
2023-02-11T04:15:35.103Z,21.92
2023-02-11T04:18:03.625Z,21.65
2023-02-11T04:20:32.031Z,20.95
2023-02-11T04:23:00.084Z,20.27
2023-02-11T04:25:29.793Z,22.38
2023-02-11T04:27:58.121Z,21.65
2023-02-11T04:30:26.349Z,20.58
2023-02-11T04:32:54.948Z,20.92
2023-02-11T04:35:23.326Z,21.40
2023-02-11T04:37:51.412Z,21.58
2023-02-11T04:40:19.879Z,20.08
2023-02-11T04:42:49.402Z,20.98
2023-02-11T04:45:17.774Z,21.80
2023-02-11T04:47:45.888Z,21.83
2023-02-11T04:50:13.979Z,20.77
2023-02-11T04:52:42.118Z,21.38
2023-02-11T04:55:10.423Z,22.92
2023-02-11T04:57:38.506Z,19.75
2023-02-11T05:00:10.075Z,23.75
2023-02-11T05:02:40.007Z,21.55
2023-02-11T05:05:08.750Z,25.05
2023-02-11T05:07:36.977Z,24.48
2023-02-11T05:10:06.067Z,31.67
2023-02-11T05:12:34.235Z,33.20
2023-02-11T05:15:02.417Z,57.05
2023-02-11T05:17:33.192Z,49.60
2023-02-11T05:20:02.957Z,30.23
2023-02-11T05:22:31.201Z,32.10
2023-02-11T05:24:59.302Z,27.42
2023-02-11T05:27:27.500Z,31.30
2023-02-11T05:29:55.612Z,27.77
2023-02-11T05:32:23.827Z,32.85
2023-02-11T05:34:53.304Z,30.92
2023-02-11T05:37:21.433Z,28.20
2023-02-11T05:39:50.055Z,28.27
2023-02-11T05:42:18.113Z,27.40
2023-02-11T05:44:47.182Z,28.17
2023-02-11T05:47:16.040Z,26.73
2023-02-11T05:49:44.416Z,26.73
2023-02-11T05:52:14.059Z,29.15
2023-02-11T05:54:42.342Z,27.02
2023-02-11T05:57:10.454Z,26.50
2023-02-11T05:59:38.672Z,27.33
2023-02-11T06:02:07.941Z,26.15
2023-02-11T06:04:36.493Z,25.60
2023-02-11T06:07:05.312Z,25.63
2023-02-11T06:09:34.748Z,29.25
2023-02-11T06:12:02.886Z,27.48
2023-02-11T06:14:30.989Z,26.27
2023-02-11T06:16:59.040Z,28.05
2023-02-11T06:19:27.430Z,26.58
2023-02-11T06:21:56.960Z,28.17
2023-02-11T06:24:48.148Z,29.13
2023-02-11T06:27:14.976Z,28.15
2023-02-11T06:29:43.047Z,27.48
2023-02-11T06:32:28.152Z,28.83
2023-02-11T06:34:59.222Z,41.35
2023-02-11T06:37:27.318Z,33.30
2023-02-11T06:39:55.436Z,37.17
2023-02-11T06:42:25.114Z,40.00
2023-02-11T06:44:53.334Z,30.38
2023-02-11T06:47:21.503Z,23.98
2023-02-11T06:49:49.595Z,24.77
2023-02-11T06:52:17.768Z,23.27
2023-02-11T06:54:45.898Z,23.02
2023-02-11T06:57:14.078Z,25.42
2023-02-11T06:59:43.573Z,24.60
2023-02-11T07:02:12.371Z,25.63
2023-02-11T07:04:40.490Z,23.92
2023-02-11T07:07:08.776Z,25.48
2023-02-11T07:09:36.859Z,24.77
2023-02-11T07:12:05.694Z,25.05
2023-02-11T07:14:33.834Z,21.63
2023-02-11T07:17:04.076Z,22.02
2023-02-11T07:19:32.220Z,19.88
2023-02-11T07:22:00.475Z,21.33
2023-02-11T07:24:28.545Z,23.45
2023-02-11T07:26:56.643Z,23.88
2023-02-11T07:29:24.755Z,21.55
2023-02-11T07:31:53.064Z,23.35
2023-02-11T07:34:22.562Z,23.42
2023-02-11T07:36:51.313Z,21.58
2023-02-11T07:39:20.004Z,23.73
2023-02-11T07:41:49.306Z,21.95
2023-02-11T07:44:17.589Z,20.92
2023-02-11T07:46:46.247Z,23.48
2023-02-11T07:49:14.367Z,20.70
2023-02-11T07:51:43.941Z,26.83
2023-02-11T07:54:13.319Z,25.23
2023-02-11T07:56:41.388Z,25.40
2023-02-11T07:59:09.694Z,26.02
2023-02-11T08:01:37.934Z,25.38
2023-02-11T08:04:06.462Z,25.30
2023-02-11T08:06:36.243Z,25.10
2023-02-11T08:09:12.387Z,25.15
2023-02-11T08:11:40.446Z,22.33
2023-02-11T08:14:08.595Z,22.63
2023-02-11T08:16:39.833Z,22.33
2023-02-11T08:19:14.935Z,20.40
2023-02-11T08:21:44.400Z,20.95
2023-02-11T08:24:13.919Z,21.02
2023-02-11T08:26:42.077Z,22.58
2023-02-11T08:29:13.654Z,20.33
2023-02-11T08:31:45.884Z,21.70
2023-02-11T08:34:19.004Z,20.15
2023-02-11T08:36:48.995Z,20.98
2023-02-11T08:39:23.433Z,19.23
2023-02-11T08:41:54.513Z,18.73
2023-02-11T08:44:24.275Z,19.52
2023-02-11T08:46:53.317Z,19.50
2023-02-11T08:49:22.255Z,18.02
2023-02-11T08:51:51.081Z,19.20
2023-02-11T08:54:20.606Z,18.02
2023-02-11T08:56:52.728Z,18.17
2023-02-11T08:59:21.070Z,19.02
2023-02-11T09:01:49.621Z,18.42
2023-02-11T09:04:17.769Z,17.48
2023-02-11T09:06:46.420Z,19.67
2023-02-11T09:09:16.807Z,16.27
2023-02-11T09:11:47.904Z,17.38
2023-02-11T09:14:21.228Z,16.90
2023-02-11T09:16:50.831Z,18.20
2023-02-11T09:19:20.124Z,18.67
2023-02-11T09:21:48.570Z,17.05
2023-02-11T09:24:16.889Z,16.55
2023-02-11T09:26:46.433Z,16.73
2023-02-11T09:29:14.789Z,18.02
2023-02-11T09:31:42.937Z,16.50
2023-02-11T09:34:12.685Z,18.40
2023-02-11T09:36:42.479Z,17.77
2023-02-11T09:39:15.349Z,17.52
2023-02-11T09:42:26.169Z,15.57
2023-02-11T09:44:54.685Z,15.75
2023-02-11T09:47:31.052Z,16.08
2023-02-11T09:50:05.895Z,11.55
2023-02-11T09:52:44.005Z,17.63
2023-02-11T09:55:22.673Z,20.67
2023-02-11T09:57:53.146Z,17.98
2023-02-11T10:00:27.634Z,19.02
2023-02-11T10:03:44.138Z,17.13
2023-02-11T10:06:40.054Z,17.23
2023-02-11T10:09:38.102Z,15.13
2023-02-11T10:12:29.482Z,16.70
2023-02-11T10:15:38.297Z,17.92
2023-02-11T10:21:11.972Z,15.00
2023-02-11T10:23:48.115Z,16.98
2023-02-11T10:26:19.485Z,16.17
2023-02-11T10:28:52.912Z,17.75
2023-02-11T10:31:28.543Z,15.85
2023-02-11T10:34:04.624Z,19.52
2023-02-11T10:36:37.131Z,14.23
2023-02-11T10:39:15.236Z,16.88
2023-02-11T10:41:47.674Z,15.05
2023-02-11T10:44:28.614Z,16.63
2023-02-11T10:47:03.094Z,17.17
2023-02-11T10:49:39.117Z,15.43
2023-02-11T10:52:23.672Z,16.77
2023-02-11T10:55:02.203Z,17.98
2023-02-11T10:57:36.584Z,19.67
2023-02-11T11:00:24.145Z,17.38
2023-02-11T11:03:01.317Z,17.40
2023-02-11T11:05:35.416Z,14.85
2023-02-11T11:08:07.746Z,16.83
2023-02-11T11:10:44.328Z,16.75
2023-02-11T11:13:27.580Z,17.00
2023-02-11T11:16:22.816Z,17.08
2023-02-11T11:19:14.642Z,17.25
2023-02-11T11:21:46.773Z,17.10
2023-02-11T11:24:22.667Z,18.50
2023-02-11T11:26:54.103Z,17.23
2023-02-11T11:29:29.197Z,17.27
2023-02-11T11:32:01.296Z,19.83
2023-02-11T11:34:34.419Z,16.55
2023-02-11T11:37:14.918Z,18.02
2023-02-11T11:39:43.347Z,18.05
2023-02-11T11:42:28.878Z,15.82
2023-02-11T11:45:01.785Z,18.45
2023-02-11T11:47:39.086Z,17.17
2023-02-11T11:50:26.439Z,18.75
2023-02-11T11:53:04.027Z,16.75
2023-02-11T11:55:41.672Z,16.98
2023-02-11T11:58:17.610Z,17.73
2023-02-11T12:01:02.252Z,16.50
2023-02-11T12:04:29.375Z,15.27
2023-02-11T12:07:16.427Z,16.52
2023-02-11T12:10:05.376Z,15.80
2023-02-11T12:12:49.905Z,15.95
2023-02-11T12:15:35.307Z,15.48
2023-02-11T12:18:28.467Z,16.33
2023-02-11T12:21:25.021Z,15.85
2023-02-11T12:24:17.814Z,17.17
2023-02-11T12:26:54.364Z,15.93
2023-02-11T12:29:38.042Z,17.23
2023-02-11T12:32:26.722Z,17.13
2023-02-11T12:35:27.171Z,17.08
2023-02-11T12:38:26.890Z,17.27
2023-02-11T12:41:17.936Z,14.43
2023-02-11T12:43:45.706Z,16.58
2023-02-11T12:46:35.194Z,14.05
2023-02-11T12:49:27.829Z,16.17
2023-02-11T12:52:26.257Z,13.77
2023-02-11T12:55:01.417Z,13.82
2023-02-11T12:57:35.593Z,14.38
2023-02-11T13:00:14.814Z,13.02
2023-02-11T13:02:54.376Z,14.25
2023-02-11T13:05:30.095Z,13.05
2023-02-11T13:08:08.413Z,14.23
2023-02-11T13:10:39.559Z,15.35
2023-02-11T13:13:19.406Z,13.52
2023-02-11T13:15:54.840Z,14.70
2023-02-11T13:18:40.763Z,12.65
2023-02-11T13:21:32.089Z,14.07
2023-02-11T13:24:15.293Z,12.70
2023-02-11T13:26:52.315Z,13.07
2023-02-11T13:29:39.864Z,11.90
2023-02-11T13:32:11.722Z,13.85
2023-02-11T13:34:57.331Z,12.30
2023-02-11T13:37:31.826Z,11.95
2023-02-11T13:40:02.897Z,13.02
2023-02-11T13:42:51.998Z,11.95
2023-02-11T13:45:32.937Z,11.38
2023-02-11T13:48:05.791Z,13.30
2023-02-11T13:50:47.612Z,11.15
2023-02-11T13:53:17.946Z,12.60
2023-02-11T13:55:48.604Z,12.55
2023-02-11T13:58:39.845Z,12.27
2023-02-11T14:01:09.615Z,11.40
2023-02-11T14:03:57.977Z,11.90
2023-02-11T14:06:46.880Z,11.52
2023-02-11T14:09:45.007Z,12.73
2023-02-11T14:12:33.907Z,10.68
2023-02-11T14:15:30.769Z,12.88
2023-02-11T14:18:00.473Z,11.10
2023-02-11T14:20:44.559Z,10.65
2023-02-11T14:23:28.485Z,9.90
2023-02-11T14:26:20.071Z,11.90
2023-02-11T14:28:52.182Z,9.23
2023-02-11T14:31:27.417Z,10.80
2023-02-11T14:34:23.338Z,13.07
2023-02-11T14:37:03.437Z,24.88
2023-02-11T14:39:58.026Z,12.38
2023-02-11T14:42:31.011Z,10.55
2023-02-11T14:45:07.404Z,10.95
2023-02-11T14:47:43.975Z,9.25
2023-02-11T14:50:23.900Z,10.60
2023-02-11T14:52:54.287Z,10.75
2023-02-11T14:55:33.070Z,12.68
2023-02-11T14:58:13.990Z,11.60
2023-02-11T15:00:55.812Z,12.10
2023-02-11T15:03:33.713Z,12.80
2023-02-11T15:06:08.496Z,12.15
2023-02-11T15:08:43.406Z,12.50
2023-02-11T15:11:16.800Z,15.07
2023-02-11T15:13:47.599Z,14.90
2023-02-11T15:16:21.468Z,15.93
2023-02-11T15:18:54.000Z,13.95
2023-02-11T15:21:26.682Z,14.40
2023-02-11T15:24:05.927Z,17.10
2023-02-11T15:26:34.834Z,14.02
2023-02-11T15:29:03.173Z,12.10
2023-02-11T15:31:34.884Z,13.52
2023-02-11T15:34:09.327Z,12.48
2023-02-11T15:36:39.740Z,14.23
2023-02-11T15:39:32.362Z,14.32
2023-02-11T15:42:27.737Z,12.73
2023-02-11T15:45:25.883Z,14.40
2023-02-11T15:47:57.474Z,13.35
2023-02-11T15:50:29.503Z,13.35
2023-02-11T15:53:06.813Z,12.63
2023-02-11T15:55:35.069Z,14.18
2023-02-11T15:58:03.421Z,13.45
2023-02-11T16:00:38.617Z,12.07
2023-02-11T16:03:06.860Z,13.32
2023-02-11T16:05:38.453Z,13.18
2023-02-11T16:08:24.519Z,13.80
2023-02-11T16:10:58.845Z,13.90
2023-02-11T16:13:30.269Z,15.05
2023-02-11T16:16:02.417Z,14.98
2023-02-11T16:18:39.770Z,14.50
2023-02-11T16:21:16.852Z,13.05
2023-02-11T16:23:54.238Z,15.90
2023-02-11T16:26:28.774Z,14.18
2023-02-11T16:29:11.717Z,13.13
2023-02-11T16:31:44.446Z,14.40
2023-02-11T16:34:20.148Z,12.63
2023-02-11T16:36:49.568Z,13.77
2023-02-11T16:39:22.503Z,13.13
2023-02-11T16:41:51.808Z,14.23
2023-02-11T16:44:20.408Z,15.63
2023-02-11T16:46:49.032Z,13.77
2023-02-11T16:49:24.000Z,15.05
2023-02-11T16:51:57.595Z,13.32
2023-02-11T16:54:27.006Z,13.98
2023-02-11T16:56:55.865Z,13.55
2023-02-11T16:59:24.238Z,14.73
2023-02-11T17:01:54.814Z,13.52
2023-02-11T17:04:28.333Z,15.80
2023-02-11T17:06:58.381Z,15.18
2023-02-11T17:09:31.029Z,15.60
2023-02-11T17:12:00.165Z,14.30
2023-02-11T17:14:28.669Z,15.35
2023-02-11T17:16:57.204Z,13.85
2023-02-11T17:19:25.528Z,14.63
2023-02-11T17:21:54.534Z,17.33
2023-02-11T17:24:23.655Z,15.75
2023-02-11T17:26:53.252Z,15.70
2023-02-11T17:29:24.698Z,16.08
2023-02-11T17:31:53.799Z,16.67
2023-02-11T17:34:23.257Z,15.88
2023-02-11T17:36:51.816Z,13.82
2023-02-11T17:39:21.092Z,15.30
2023-02-11T17:41:49.360Z,16.65
2023-02-11T17:44:18.864Z,15.18
2023-02-11T17:46:46.976Z,14.38
2023-02-11T17:49:15.749Z,16.45
2023-02-11T17:51:43.886Z,16.20
2023-02-11T17:54:15.142Z,14.25
2023-02-11T17:56:43.940Z,14.40
2023-02-11T17:59:14.023Z,16.65
2023-02-11T18:01:44.974Z,14.93
2023-02-11T18:04:18.152Z,15.55
2023-02-11T18:06:47.165Z,12.93
2023-02-11T18:09:15.640Z,17.42
2023-02-11T18:11:43.974Z,14.98
2023-02-11T18:14:12.306Z,14.55
2023-02-11T18:16:43.022Z,16.42
2023-02-11T18:19:13.272Z,14.70
2023-02-11T18:21:41.557Z,16.05
2023-02-11T18:24:09.747Z,14.27
2023-02-11T18:26:37.946Z,16.65
2023-02-11T18:29:07.334Z,16.38
2023-02-11T18:31:36.886Z,16.50
2023-02-11T18:34:07.765Z,17.27
2023-02-11T18:36:37.718Z,15.52
2023-02-11T18:39:06.083Z,16.95
2023-02-11T18:41:34.436Z,18.13
2023-02-11T18:44:03.255Z,14.43
2023-02-11T18:46:31.934Z,16.35
2023-02-11T18:49:00.176Z,15.43
2023-02-11T18:51:28.839Z,14.43
2023-02-11T18:53:58.262Z,14.43
2023-02-11T18:56:27.785Z,16.80
2023-02-11T18:58:57.315Z,15.75
2023-02-11T19:01:28.194Z,16.65
2023-02-11T19:03:59.505Z,14.75
2023-02-11T19:06:30.878Z,13.30
2023-02-11T19:09:05.036Z,15.95
2023-02-11T19:11:50.412Z,17.20
2023-02-11T19:14:23.994Z,16.58
2023-02-11T19:16:55.270Z,16.33
2023-02-11T19:19:26.877Z,16.77
2023-02-11T19:21:56.252Z,15.93
2023-02-11T19:24:27.000Z,15.90
2023-02-11T19:26:59.407Z,17.17
2023-02-11T19:29:28.742Z,15.93
2023-02-11T19:31:57.091Z,17.23
2023-02-11T19:34:25.491Z,16.85
2023-02-11T19:36:54.422Z,20.77
2023-02-11T19:39:24.657Z,19.25
2023-02-11T19:41:54.575Z,19.42
2023-02-11T19:44:22.632Z,16.92
2023-02-11T19:46:53.334Z,18.45
2023-02-11T19:49:25.837Z,18.17
2023-02-11T19:51:58.087Z,19.70
2023-02-11T19:54:28.659Z,19.05
2023-02-11T19:56:59.106Z,17.38
2023-02-11T19:59:27.846Z,18.45
2023-02-11T20:01:56.060Z,17.60
2023-02-11T20:04:28.102Z,17.02
2023-02-11T20:06:56.160Z,16.33
2023-02-11T20:09:24.336Z,19.70
2023-02-11T20:11:52.441Z,18.52
2023-02-11T20:14:21.924Z,16.77
2023-02-11T20:16:50.378Z,17.55
2023-02-11T20:19:22.240Z,17.35
2023-02-11T20:21:53.853Z,19.10
2023-02-11T20:24:23.018Z,18.73
2023-02-11T20:26:55.270Z,18.13
2023-02-11T20:29:25.951Z,18.35
2023-02-11T20:31:55.131Z,19.30
2023-02-11T20:34:24.891Z,18.10
2023-02-11T20:36:53.517Z,17.67
2023-02-11T20:39:23.012Z,17.80
2023-02-11T20:41:52.436Z,17.63
2023-02-11T20:44:22.931Z,17.52
2023-02-11T20:46:53.928Z,21.52
2023-02-11T20:49:24.806Z,20.27
2023-02-11T20:51:53.736Z,19.13
2023-02-11T20:54:23.907Z,18.63
2023-02-11T20:56:53.900Z,19.10
2023-02-11T20:59:24.079Z,17.38
2023-02-11T21:01:56.616Z,16.23
2023-02-11T21:04:27.412Z,17.20
2023-02-11T21:06:58.818Z,17.83
2023-02-11T21:09:29.758Z,16.50
2023-02-11T21:11:58.153Z,19.25
2023-02-11T21:14:28.141Z,18.17
2023-02-11T21:16:58.095Z,14.93
2023-02-11T21:19:26.342Z,18.70
2023-02-11T21:21:57.416Z,17.83
2023-02-11T21:24:25.642Z,17.70
2023-02-11T21:26:53.848Z,17.92
2023-02-11T21:29:21.923Z,17.83
2023-02-11T21:31:51.395Z,17.55
2023-02-11T21:34:21.087Z,17.05
2023-02-11T21:36:51.145Z,16.00
2023-02-11T21:39:20.335Z,17.73
2023-02-11T21:41:48.498Z,20.10
2023-02-11T21:44:16.827Z,18.67
2023-02-11T21:46:45.021Z,17.30
2023-02-11T21:49:13.254Z,15.75
2023-02-11T21:51:42.806Z,16.98
2023-02-11T21:54:12.983Z,17.23
2023-02-11T21:56:41.166Z,17.63
2023-02-11T21:59:12.905Z,17.02
2023-02-11T22:01:42.436Z,17.83
2023-02-11T22:04:11.254Z,18.10
2023-02-11T22:06:39.798Z,16.50
2023-02-11T22:09:11.465Z,18.08
2023-02-11T22:11:40.600Z,19.80
2023-02-11T22:14:08.769Z,21.48
2023-02-11T22:16:37.197Z,19.13
2023-02-11T22:19:07.395Z,16.60
2023-02-11T22:21:35.728Z,16.75
2023-02-11T22:24:03.906Z,16.38
2023-02-11T22:26:33.602Z,17.02
2023-02-11T22:29:01.999Z,17.42
2023-02-11T22:31:33.265Z,18.42
2023-02-11T22:34:02.679Z,17.77
2023-02-11T22:36:33.662Z,16.45
2023-02-11T22:39:03.368Z,16.40
2023-02-11T22:41:32.914Z,17.98
2023-02-11T22:44:01.293Z,16.83
2023-02-11T22:46:29.438Z,18.20
2023-02-11T22:48:57.783Z,18.88
2023-02-11T22:51:30.885Z,21.73
2023-02-11T22:54:01.610Z,17.95
2023-02-11T22:56:32.535Z,22.55
2023-02-11T22:59:06.603Z,18.77
2023-02-11T23:01:36.993Z,17.65
2023-02-11T23:04:09.627Z,20.48
2023-02-11T23:06:37.799Z,19.50
2023-02-11T23:09:06.500Z,18.30
2023-02-11T23:11:35.838Z,18.20
2023-02-11T23:14:05.685Z,16.38
2023-02-11T23:16:36.115Z,16.45
2023-02-11T23:19:09.018Z,17.08
2023-02-11T23:21:40.542Z,18.35
2023-02-11T23:24:12.320Z,18.58
2023-02-11T23:26:42.822Z,20.38
2023-02-11T23:29:13.430Z,19.80
2023-02-11T23:31:46.546Z,19.25
2023-02-11T23:34:17.121Z,26.50
2023-02-11T23:36:45.640Z,19.95
2023-02-11T23:39:16.978Z,19.30
2023-02-11T23:41:45.244Z,20.25
2023-02-11T23:44:14.748Z,22.35
2023-02-11T23:46:42.867Z,21.63
2023-02-11T23:49:11.242Z,21.88
2023-02-11T23:51:39.293Z,21.63
2023-02-11T23:54:07.457Z,24.13
2023-02-11T23:56:37.075Z,22.38
2023-02-11T23:59:05.628Z,22.55
